Plymouth, Maine
Current Conditions -  °F | °C
As of 5:38 PM on Monday 24 Nov 2014 (Local Time) from KBGR Reporting Station
Haze Haze  
Wind Chill: 57°   Ceiling: 400
Heat Index: 57°   Visibility: 2.5mi
Dew Point: 57°   Wind: 18mph
Humidity: 100%   Direction: 170°S
Pressure: 29.54"   Gusts: 25mph
Location:  44.77°N, 69.21°W
Report Text: KBGR 242238Z 17016G22KT 2 1/2SM BR OVC004 14/14 A2954 RMK AO2 PK WND 16027/2221 DZE04RAB04E36 P0002 T01390139
Loading
Personal Weather Stations






























Interactive Weather Map New forecast layout! Learn more

10-Day Weather Forecast

Advertisements
Track Severe Weather on mobile